Time,TemperatureF,DewpointF,PressureIn,WindDirection,WindDirectionDegrees,WindSpeedMPH,WindSpeedGustMPH,Humidity,HourlyPrecipIn,Conditions,Clouds,dailyrainin,SolarRadiationWatts/m^2,SoftwareType,DateUTC
2013-10-01 00:02:00,75.4,72.0,30.00,ENE,69,0.0,-999.0,90,-99.99,,,0.00,0,weatherlink.com 1.10,2013-10-01 04:02:00,
2013-10-01 00:17:00,75.1,72.0,29.99,ENE,69,0.0,-999.0,91,-99.99,,,0.00,0,weatherlink.com 1.10,2013-10-01 04:17:00,
2013-10-01 00:32:00,74.9,72.0,29.98,ENE,69,0.0,-999.0,91,-99.99,,,0.00,0,weatherlink.com 1.10,2013-10-01 04:32:00,
2013-10-01 00:46:00,74.6,72.0,29.98,ENE,69,0.0,-999.0,92,-99.99,,,0.00,0,weatherlink.com 1.10,2013-10-01 04:46:00,
2013-10-01 01:02:00,74.6,72.0,29.97,ENE,69,0.0,-999.0,92,-99.99,,,0.00,0,weatherlink.com 1.10,2013-10-01 05:02:00,
2013-10-01 01:17:00,74.2,72.0,29.97,ENE,69,0.0,-999.0,92,-99.99,,,0.00,0,weatherlink.com 1.10,2013-10-01 05:17:00,
2013-10-01 01:31:00,74.0,72.0,29.97,ENE,69,0.0,-999.0,93,-99.99,,,0.00,0,weatherlink.com 1.10,2013-10-01 05:31:00,
2013-10-01 01:47:00,73.5,72.0,29.97,ENE,69,0.0,-999.0,94,-99.99,,,0.00,0,weatherlink.com 1.10,2013-10-01 05:47:00,
2013-10-01 02:02:00,73.3,72.0,29.96,ENE,69,0.0,-999.0,94,-99.99,,,0.00,0,weatherlink.com 1.10,2013-10-01 06:02:00,
2013-10-01 02:17:00,73.2,72.0,29.96,ENE,69,0.0,-999.0,95,-99.99,,,0.00,0,weatherlink.com 1.10,2013-10-01 06:17:00,
2013-10-01 02:32:00,72.8,71.0,29.96,ENE,69,0.0,-999.0,95,-99.99,,,0.00,0,weatherlink.com 1.10,2013-10-01 06:32:00,
2013-10-01 02:46:00,72.7,72.0,29.96,ENE,69,0.0,-999.0,96,-99.99,,,0.00,0,weatherlink.com 1.10,2013-10-01 06:46:00,
2013-10-01 03:02:00,72.3,71.0,29.96,ENE,69,0.0,-999.0,97,-99.99,,,0.00,0,weatherlink.com 1.10,2013-10-01 07:02:00,
2013-10-01 03:17:00,72.1,71.0,29.96,ENE,69,0.0,-999.0,97,-99.99,,,0.00,0,weatherlink.com 1.10,2013-10-01 07:17:00,
2013-10-01 03:32:00,71.6,71.0,29.95,ENE,69,0.0,-999.0,98,-99.99,,,0.00,0,weatherlink.com 1.10,2013-10-01 07:32:00,
2013-10-01 03:47:00,71.1,71.0,29.95,ENE,69,0.0,-999.0,98,-99.99,,,0.00,0,weatherlink.com 1.10,2013-10-01 07:47:00,
2013-10-01 04:02:00,70.6,70.0,29.96,ENE,69,0.0,-999.0,98,-99.99,,,0.00,0,weatherlink.com 1.10,2013-10-01 08:02:00,
2013-10-01 04:17:00,70.8,71.0,29.96,ENE,69,0.0,-999.0,100,-99.99,,,0.00,0,weatherlink.com 1.10,2013-10-01 08:17:00,
2013-10-01 04:32:00,70.4,70.0,29.96,ENE,69,0.0,-999.0,100,-99.99,,,0.00,0,weatherlink.com 1.10,2013-10-01 08:32:00,
2013-10-01 04:47:00,70.3,70.0,29.96,ENE,69,0.0,-999.0,100,-99.99,,,0.00,0,weatherlink.com 1.10,2013-10-01 08:47:00,
2013-10-01 05:02:00,70.3,70.0,29.96,ENE,69,0.0,-999.0,100,-99.99,,,0.00,0,weatherlink.com 1.10,2013-10-01 09:02:00,
2013-10-01 05:17:00,70.1,70.0,29.97,ENE,69,0.0,-999.0,100,-99.99,,,0.00,0,weatherlink.com 1.10,2013-10-01 09:17:00,
2013-10-01 05:32:00,69.9,70.0,29.97,ENE,69,0.0,-999.0,100,-99.99,,,0.00,0,weatherlink.com 1.10,2013-10-01 09:32:00,
2013-10-01 05:47:00,69.9,70.0,29.97,ENE,69,0.0,-999.0,100,-99.99,,,0.00,0,weatherlink.com 1.10,2013-10-01 09:47:00,
2013-10-01 06:02:00,69.9,70.0,29.97,ENE,69,0.0,-999.0,100,-99.99,,,0.00,0,weatherlink.com 1.10,2013-10-01 10:02:00,
2013-10-01 06:17:00,69.9,70.0,29.98,ENE,69,0.0,-999.0,100,-99.99,,,0.00,0,weatherlink.com 1.10,2013-10-01 10:17:00,
2013-10-01 06:32:00,69.8,70.0,29.98,ENE,69,0.0,-999.0,100,-99.99,,,0.00,0,weatherlink.com 1.10,2013-10-01 10:32:00,
2013-10-01 06:47:00,69.9,70.0,29.99,ENE,69,0.0,-999.0,100,-99.99,,,0.00,0,weatherlink.com 1.10,2013-10-01 10:47:00,
2013-10-01 07:02:00,70.1,70.0,29.99,ENE,69,0.0,-999.0,100,-99.99,,,0.00,0,weatherlink.com 1.10,2013-10-01 11:02:00,
2013-10-01 07:17:00,69.8,70.0,30.00,ENE,69,0.0,-999.0,100,-99.99,,,0.00,0,weatherlink.com 1.10,2013-10-01 11:17:00,
2013-10-01 07:32:00,69.9,70.0,30.01,ENE,69,1.0,-999.0,100,-99.99,,,0.00,11,weatherlink.com 1.10,2013-10-01 11:32:00,
2013-10-01 07:47:00,69.8,70.0,30.01,ENE,69,0.0,-999.0,100,-99.99,,,0.00,19,weatherlink.com 1.10,2013-10-01 11:47:00,
2013-10-01 08:02:00,70.9,71.0,30.02,ENE,69,0.0,-999.0,100,-99.99,,,0.00,63,weatherlink.com 1.10,2013-10-01 12:02:00,
2013-10-01 08:17:00,72.1,72.0,30.01,NE,51,0.0,-999.0,100,-99.99,,,0.00,109,weatherlink.com 1.10,2013-10-01 12:17:00,
2013-10-01 08:32:00,73.2,73.0,30.02,NE,35,0.0,-999.0,100,-99.99,,,0.00,149,weatherlink.com 1.10,2013-10-01 12:32:00,
2013-10-01 08:47:00,74.4,74.0,30.02,NE,48,4.0,-999.0,98,-99.99,,,0.00,195,weatherlink.com 1.10,2013-10-01 12:47:00,
2013-10-01 09:02:00,75.6,74.0,30.02,NE,54,0.0,-999.0,95,-99.99,,,0.00,239,weatherlink.com 1.10,2013-10-01 13:02:00,
2013-10-01 09:17:00,77.2,74.0,30.02,ESE,102,4.0,-999.0,90,-99.99,,,0.00,302,weatherlink.com 1.10,2013-10-01 13:17:00,
2013-10-01 09:32:00,78.6,74.0,30.02,ENE,72,0.0,-999.0,85,-99.99,,,0.00,355,weatherlink.com 1.10,2013-10-01 13:32:00,
2013-10-01 09:47:00,79.6,74.0,30.03,SE,124,4.0,-999.0,82,-99.99,,,0.00,404,weatherlink.com 1.10,2013-10-01 13:47:00,
2013-10-01 10:17:00,81.4,74.0,30.03,ENE,73,3.0,-999.0,77,-99.99,,,0.00,506,weatherlink.com 1.10,2013-10-01 14:17:00,
2013-10-01 10:32:00,82.0,74.0,30.03,ENE,75,0.0,-999.0,76,-99.99,,,0.00,559,weatherlink.com 1.10,2013-10-01 14:32:00,
2013-10-01 10:47:00,83.0,73.0,30.02,SE,136,0.0,-999.0,72,-99.99,,,0.00,598,weatherlink.com 1.10,2013-10-01 14:47:00,
2013-10-01 11:02:00,83.4,74.0,30.02,NE,43,0.0,-999.0,72,-99.99,,,0.00,640,weatherlink.com 1.10,2013-10-01 15:02:00,
2013-10-01 11:17:00,83.8,73.0,30.02,SE,146,0.0,-999.0,69,-99.99,,,0.00,680,weatherlink.com 1.10,2013-10-01 15:17:00,
2013-10-01 11:32:00,84.1,73.0,30.02,SSE,152,0.0,-999.0,69,-99.99,,,0.00,756,weatherlink.com 1.10,2013-10-01 15:32:00,
2013-10-01 11:47:00,84.9,73.0,30.02,ENE,68,3.0,-999.0,68,-99.99,,,0.00,763,weatherlink.com 1.10,2013-10-01 15:47:00,
2013-10-01 12:17:00,85.3,72.0,30.02,South,173,7.0,-999.0,64,-99.99,,,0.00,786,weatherlink.com 1.10,2013-10-01 16:17:00,
2013-10-01 12:32:00,85.9,71.0,30.01,East,101,0.0,-999.0,62,-99.99,,,0.00,817,weatherlink.com 1.10,2013-10-01 16:32:00,
2013-10-01 12:47:00,86.7,70.0,30.01,East,98,5.0,-999.0,58,-99.99,,,0.00,882,weatherlink.com 1.10,2013-10-01 16:47:00,
2013-10-01 13:02:00,87.4,68.0,30.00,South,186,10.0,-999.0,53,-99.99,,,0.00,914,weatherlink.com 1.10,2013-10-01 17:02:00,
2013-10-01 13:17:00,87.2,68.0,29.99,East,97,0.0,-999.0,53,-99.99,,,0.00,868,weatherlink.com 1.10,2013-10-01 17:17:00,
2013-10-01 13:32:00,87.6,70.0,29.99,SSE,153,4.0,-999.0,57,-99.99,,,0.00,882,weatherlink.com 1.10,2013-10-01 17:32:00,
2013-10-01 13:47:00,87.2,70.0,29.99,ENE,78,3.0,-999.0,56,-99.99,,,0.00,967,weatherlink.com 1.10,2013-10-01 17:47:00,
2013-10-01 14:02:00,87.2,71.0,29.98,ENE,67,1.0,-999.0,58,-99.99,,,0.00,905,weatherlink.com 1.10,2013-10-01 18:02:00,
2013-10-01 14:17:00,87.8,70.0,29.98,SSE,156,4.0,-999.0,55,-99.99,,,0.00,842,weatherlink.com 1.10,2013-10-01 18:17:00,
2013-10-01 14:32:00,88.0,69.0,29.97,NE,54,4.0,-999.0,54,-99.99,,,0.00,816,weatherlink.com 1.10,2013-10-01 18:32:00,
2013-10-01 14:47:00,88.0,69.0,29.96,ENE,72,5.0,-999.0,53,-99.99,,,0.00,802,weatherlink.com 1.10,2013-10-01 18:47:00,
2013-10-01 15:02:00,87.8,67.0,29.96,East,87,5.0,-999.0,51,-99.99,,,0.00,802,weatherlink.com 1.10,2013-10-01 19:02:00,
2013-10-01 15:17:00,88.6,69.0,29.96,East,83,4.0,-999.0,53,-99.99,,,0.00,775,weatherlink.com 1.10,2013-10-01 19:17:00,
2013-10-01 15:32:00,88.0,69.0,29.95,East,80,0.0,-999.0,53,-99.99,,,0.00,97,weatherlink.com 1.10,2013-10-01 19:32:00,
2013-10-01 15:47:00,88.6,69.0,29.95,ENE,70,6.0,-999.0,52,-99.99,,,0.00,146,weatherlink.com 1.10,2013-10-01 19:47:00,
2013-10-01 16:02:00,86.7,68.0,29.95,ENE,73,0.0,-999.0,54,-99.99,,,0.00,179,weatherlink.com 1.10,2013-10-01 20:02:00,
2013-10-01 16:18:00,86.7,69.0,29.95,NE,49,0.0,-999.0,55,-99.99,,,0.00,144,weatherlink.com 1.10,2013-10-01 20:18:00,
2013-10-01 16:32:00,88.6,69.0,29.94,SE,125,4.0,-999.0,52,-99.99,,,0.00,559,weatherlink.com 1.10,2013-10-01 20:32:00,
2013-10-01 16:47:00,88.6,69.0,29.94,ESE,114,0.0,-999.0,53,-99.99,,,0.00,515,weatherlink.com 1.10,2013-10-01 20:47:00,
2013-10-01 17:02:00,89.3,68.0,29.94,SSE,165,4.0,-999.0,49,-99.99,,,0.00,476,weatherlink.com 1.10,2013-10-01 21:02:00,
2013-10-01 17:17:00,89.5,68.0,29.94,ESE,119,0.0,-999.0,50,-99.99,,,0.00,473,weatherlink.com 1.10,2013-10-01 21:17:00,
2013-10-01 17:32:00,88.0,70.0,29.94,NNE,21,6.0,-999.0,56,-99.99,,,0.00,392,weatherlink.com 1.10,2013-10-01 21:32:00,
2013-10-01 17:47:00,83.8,73.0,29.95,ENE,71,7.0,-999.0,70,-99.99,,,0.00,72,weatherlink.com 1.10,2013-10-01 21:47:00,
2013-10-01 18:02:00,83.6,73.0,29.95,East,98,5.0,-999.0,71,-99.99,,,0.00,255,weatherlink.com 1.10,2013-10-01 22:02:00,
2013-10-01 18:17:00,83.2,73.0,29.95,ENE,69,5.0,-999.0,72,-99.99,,,0.00,214,weatherlink.com 1.10,2013-10-01 22:17:00,
2013-10-01 18:32:00,82.6,73.0,29.96,ENE,61,5.0,-999.0,73,-99.99,,,0.00,40,weatherlink.com 1.10,2013-10-01 22:32:00,
2013-10-01 18:47:00,81.6,73.0,29.96,ESE,110,0.0,-999.0,75,-99.99,,,0.00,28,weatherlink.com 1.10,2013-10-01 22:47:00,
2013-10-01 19:02:00,81.2,73.0,29.97,East,87,4.0,-999.0,76,-99.99,,,0.00,9,weatherlink.com 1.10,2013-10-01 23:02:00,
2013-10-01 19:17:00,80.5,72.0,29.97,East,84,0.0,-999.0,76,-99.99,,,0.00,0,weatherlink.com 1.10,2013-10-01 23:17:00,
2013-10-01 19:32:00,79.9,72.0,29.98,East,88,0.0,-999.0,77,-99.99,,,0.00,0,weatherlink.com 1.10,2013-10-01 23:32:00,
2013-10-01 19:47:00,79.6,72.0,29.98,East,86,0.0,-999.0,78,-99.99,,,0.00,0,weatherlink.com 1.10,2013-10-01 23:47:00,
2013-10-01 20:02:00,79.2,73.0,29.99,ENE,64,0.0,-999.0,80,-99.99,,,0.00,0,weatherlink.com 1.10,2013-10-02 00:02:00,
2013-10-01 20:17:00,78.8,73.0,30.00,East,80,1.0,-999.0,81,-99.99,,,0.00,0,weatherlink.com 1.10,2013-10-02 00:17:00,
2013-10-01 20:32:00,78.6,72.0,30.01,East,86,0.0,-999.0,81,-99.99,,,0.00,0,weatherlink.com 1.10,2013-10-02 00:32:00,
2013-10-01 20:47:00,78.5,72.0,30.01,East,80,0.0,-999.0,81,-99.99,,,0.00,0,weatherlink.com 1.10,2013-10-02 00:47:00,
2013-10-01 21:02:00,78.1,72.0,30.02,ENE,59,0.0,-999.0,82,-99.99,,,0.00,0,weatherlink.com 1.10,2013-10-02 01:02:00,
2013-10-01 21:17:00,77.6,73.0,30.02,East,82,0.0,-999.0,84,-99.99,,,0.00,0,weatherlink.com 1.10,2013-10-02 01:17:00,
2013-10-01 21:32:00,77.0,73.0,30.02,ENE,59,0.0,-999.0,86,-99.99,,,0.00,0,weatherlink.com 1.10,2013-10-02 01:32:00,
2013-10-01 21:47:00,76.3,73.0,30.02,ENE,59,1.0,-999.0,88,-99.99,,,0.00,0,weatherlink.com 1.10,2013-10-02 01:47:00,
2013-10-01 22:02:00,76.0,73.0,30.02,NE,54,1.0,-999.0,89,-99.99,,,0.00,0,weatherlink.com 1.10,2013-10-02 02:02:00,
2013-10-01 22:17:00,76.0,73.0,30.03,ENE,61,0.0,-999.0,89,-99.99,,,0.00,0,weatherlink.com 1.10,2013-10-02 02:17:00,
2013-10-01 22:32:00,75.8,72.0,30.03,NE,55,0.0,-999.0,89,-99.99,,,0.00,0,weatherlink.com 1.10,2013-10-02 02:32:00,
2013-10-01 22:48:00,75.6,72.0,30.03,ENE,67,3.0,-999.0,89,-99.99,,,0.00,0,weatherlink.com 1.10,2013-10-02 02:48:00,
2013-10-01 23:02:00,75.4,72.0,30.04,ENE,58,0.0,-999.0,89,-99.99,,,0.00,0,weatherlink.com 1.10,2013-10-02 03:02:00,
2013-10-01 23:17:00,75.1,72.0,30.04,ENE,67,0.0,-999.0,90,-99.99,,,0.00,0,weatherlink.com 1.10,2013-10-02 03:17:00,
2013-10-01 23:32:00,74.7,72.0,30.03,ENE,59,0.0,-999.0,90,-99.99,,,0.00,0,weatherlink.com 1.10,2013-10-02 03:32:00,
2013-10-01 23:47:00,74.4,72.0,30.03,ENE,63,0.0,-999.0,91,-99.99,,,0.00,0,weatherlink.com 1.10,2013-10-02 03:47:00,